»·PEaware :: SHTGN22 KLSV-KLSV

SHTGN22 :: KLSV-KLSV

FLIGHT INFORMATION

Flight Status: Arrived
Operator: Unknown
More flights by this operator :: More flights under this callsign
Pilot: Sean B. (13609)
Aircraft: FAIRCHILD A-10 THUNDERBOLT 2
(A10)
More flights by this aircraft type
Origin: KLSV Nellis AFB
United States
Destination: KLSV Nellis AFB
United States
More flights between these airports :: More routes between these airports
Route: +TAC-W
File this flight plan on PilotEdge
Remarks:
Altitude:
(Current/Filed)
10,500ft
Speed:
(Current/Filed)
0kts
Departed: 08-Jan-18 12:33 PM
Arrived: 08-Jan-18 01:35 PM
Distance/Time
Traveled:
1nm/1:02
Distance/Time
To Go:
Arrived

Flight Plot

Page will automatically refresh every two minutes.

Flight plan parsing failed; only flown route is shown


Map Options




Map Legend


Flown Route
Filed Route
Departure Airport
Arrival Airport
Navaid (VOR, NDB)
Fix

Horizontal Profiles

Position Reports

Time Latitude Longitude Heading Altitude Ground
Speed
08-Jan-18 12:33 36.222386 -115.039689 311 1848ft 0kts
08-Jan-18 12:34 36.222386 -115.039689 311 1848ft 0kts
08-Jan-18 12:35 36.222441 -115.039770 307 1848ft 6kts
08-Jan-18 12:36 36.223070 -115.041499 309 1848ft 3kts
08-Jan-18 12:37 36.224272 -115.043134 317 1848ft 7kts
08-Jan-18 12:38 36.224916 -115.043771 335 1848ft 7kts
08-Jan-18 12:39 36.234495 -115.033673 40 1850ft 139kts
08-Jan-18 12:40 36.271428 -114.989489 38 2595ft 211kts
08-Jan-18 12:41 36.302564 -115.041925 280 3169ft 254kts
08-Jan-18 12:42 36.315978 -115.129332 285 4361ft 261kts
08-Jan-18 12:43 36.354359 -115.211296 298 4554ft 287kts
08-Jan-18 12:44 36.395559 -115.298054 298 4705ft 291kts
08-Jan-18 12:45 36.457919 -115.351324 343 5581ft 266kts
08-Jan-18 12:46 36.530185 -115.371089 348 7125ft 246kts
08-Jan-18 12:47 36.591625 -115.372131 22 9665ft 208kts
08-Jan-18 12:48 36.644019 -115.334309 36 11239ft 212kts
08-Jan-18 12:49 36.696265 -115.300859 5 12927ft 206kts
08-Jan-18 12:50 36.756862 -115.291140 6 14233ft 221kts
08-Jan-18 12:51 36.801667 -115.279737 10 15043ft 232kts
08-Jan-18 12:52 36.808731 -115.277796 11 15217ft 231kts
08-Jan-18 12:53 36.873444 -115.263699 5 16511ft 235kts
08-Jan-18 12:54 36.907321 -115.260731 20 16823ft 253kts
08-Jan-18 12:55 36.907321 -115.260731 20 16823ft 253kts
08-Jan-18 12:56 36.939063 -115.240156 20 16774ft 274kts
08-Jan-18 12:57 37.016783 -115.210012 9 16164ft 306kts
08-Jan-18 12:58 36.997784 -115.238141 194 14487ft 246kts
08-Jan-18 12:59 36.925156 -115.262205 194 14497ft 286kts
08-Jan-18 13:00 36.882761 -115.247050 29 13469ft 284kts
08-Jan-18 13:01 36.940366 -115.205762 28 13491ft 288kts
08-Jan-18 13:02 37.025547 -115.146865 350 13580ft 289kts
08-Jan-18 13:03 36.995317 -115.194515 205 12169ft 313kts
08-Jan-18 13:04 36.918405 -115.242224 194 12447ft 290kts
08-Jan-18 13:05 36.975631 -115.225423 355 8622ft 287kts
08-Jan-18 13:06 37.028895 -115.230493 353 11820ft 231kts
08-Jan-18 13:07 36.998278 -115.212344 205 9606ft 328kts
08-Jan-18 13:08 36.936890 -115.257562 212 10386ft 285kts
08-Jan-18 13:09 36.950568 -115.233830 27 8132ft 340kts
08-Jan-18 13:10 37.027723 -115.184589 6 9695ft 259kts
08-Jan-18 13:11 37.014948 -115.227148 181 10582ft 290kts
08-Jan-18 13:12 36.932804 -115.226022 178 11376ft 285kts
08-Jan-18 13:13 36.932488 -115.299959 329 10877ft 298kts
08-Jan-18 13:14 36.981881 -115.223896 59 10591ft 313kts
08-Jan-18 13:15 36.977271 -115.163170 262 9674ft 304kts
08-Jan-18 13:16 36.976488 -115.269859 278 10406ft 245kts
08-Jan-18 13:17 36.958651 -115.236046 170 4547ft 336kts
08-Jan-18 13:18 36.900651 -115.220427 144 9745ft 205kts
08-Jan-18 13:19 36.870298 -115.155019 90 11755ft 239kts
08-Jan-18 13:20 36.905689 -115.080243 46 12966ft 280kts
08-Jan-18 13:21 36.962529 -115.002308 45 12943ft 317kts
08-Jan-18 13:22 37.015703 -114.923899 76 13963ft 308kts
08-Jan-18 13:23 37.037028 -114.817163 74 14045ft 322kts
08-Jan-18 13:24 37.059333 -114.707648 74 14045ft 325kts
08-Jan-18 13:25 37.081670 -114.597696 74 14045ft 325kts
08-Jan-18 13:26 37.038178 -114.550814 183 13617ft 320kts
08-Jan-18 13:27 36.946546 -114.557748 182 12763ft 335kts
08-Jan-18 13:28 36.852607 -114.564584 182 11816ft 332kts
08-Jan-18 13:29 36.762036 -114.570999 182 11804ft 321kts
08-Jan-18 13:30 36.672734 -114.577303 182 11805ft 320kts
08-Jan-18 13:31 36.603691 -114.642169 219 11821ft 317kts
08-Jan-18 13:32 36.541372 -114.708896 219 11815ft 259kts
08-Jan-18 13:33 36.490829 -114.763153 219 11818ft 223kts
08-Jan-18 13:34 36.439070 -114.818477 220 11780ft 252kts
08-Jan-18 13:35 36.381882 -114.879771 220 6541ft 259kts
08-Jan-18 13:36 36.328921 -114.936021 223 5376ft 249kts
08-Jan-18 13:37 36.274621 -114.994149 221 3763ft 262kts
08-Jan-18 13:38 36.249586 -115.041655 45 2834ft 221kts
08-Jan-18 13:39 36.255477 -115.014336 237 2356ft 162kts
08-Jan-18 13:40 36.231992 -115.041025 219 1852ft 53kts
08-Jan-18 13:41 36.227381 -115.047526 310 1850ft 1kts
08-Jan-18 13:42 36.227971 -115.049102 252 1852ft 9kts
08-Jan-18 13:43 36.227827 -115.049290 222 1852ft 0kts
08-Jan-18 13:44 36.227827 -115.049290 222 1852ft 0kts
08-Jan-18 13:45 36.227827 -115.049290 222 1852ft 0kts
08-Jan-18 13:46 36.227827 -115.049290 222 1852ft 0kts
08-Jan-18 13:47 36.227827 -115.049290 222 1852ft 0kts
08-Jan-18 13:48 36.227827 -115.049290 222 1852ft 0kts

Navigation Log

Ident Type
Flight plan parsing failed, navigation log unavailable